This is the latest recevied weather packets stored in our database for station/object KB5SMY. If no packets are shown the sender has not sent any weather packets the latest 10 day(s).
| Time | Temp. | Humidity | Pressure | Rain* | Wind** | Luminosity | Snow |
|---|---|---|---|---|---|---|---|
| 1777455604 | 18.89° C | 87% | 1012.1 hPa | 0 mm | - | 0 W/m² | - |
| 1777454404 | 19.44° C | 87% | 1012 hPa | 0 mm | - | 0 W/m² | - |
| 1777452604 | 19.44° C | 88% | 1012 hPa | 0 mm | - | 0 W/m² | - |
| 1777452004 | 20° C | 88% | 1011.9 hPa | 0 mm | - | 0 W/m² | - |
| 1777449731 | 20° C | 89% | 1012.3 hPa | 0 mm | - | 0 W/m² | - |
| 1777449004 | 20° C | 90% | 1012.4 hPa | 0 mm | - | 0 W/m² | - |
| 1777446604 | 20.56° C | 90% | 1012.2 hPa | 0 mm | - | 0 W/m² | - |
| 1777446004 | 20.56° C | 90% | 1012.3 hPa | 0 mm | - | 0 W/m² | - |
| 1777444331 | 21.11° C | 89% | 1012.6 hPa | 0 mm | - | 0 W/m² | - |
| 1777442404 | 21.67° C | 89% | 1013 hPa | 0 mm | - | 0 W/m² | - |
| 1777441804 | 21.67° C | 90% | 1013 hPa | 0 mm | - | 0 W/m² | - |
| 1777440732 | 21.67° C | 90% | 1012.6 hPa | 0 mm | - | 0 W/m² | - |
| 1777438804 | 21.67° C | 90% | 1012.2 hPa | 0 mm | - | 0 W/m² | - |
| 1777437732 | 21.67° C | 89% | 1012.5 hPa | 0 mm | - | 0 W/m² | - |
| 1777437004 | 21.67° C | 89% | 1012.3 hPa | 0 mm | - | 0 W/m² | - |
| 1777435804 | 21.67° C | 88% | 1012.2 hPa | 0 mm | - | 0 W/m² | - |
| 1777430404 | 21.67° C | 89% | 1010.6 hPa | 0 mm | - | 0 W/m² | - |
| 1777429804 | 21.67° C | 89% | 1010.5 hPa | 0 mm | - | 0 W/m² | - |
| 1777427405 | 21.67° C | 90% | 1009.7 hPa | 0 mm | - | 0 W/m² | - |
| 1777421405 | 21.67° C | 89% | 1010.1 hPa | 7.11 mm | - | 26 W/m² | - |
| 1777416732 | 28.89° C | 76% | 1007.2 hPa | 0 mm | - | 388 W/m² | - |
| 1777411804 | 30° C | 70% | 1008.1 hPa | 0 mm | - | 362 W/m² | - |
| 1777411204 | 30° C | 71% | 1007.9 hPa | 0 mm | - | 434 W/m² | - |
| 1777409404 | 30° C | 72% | 1008.1 hPa | 0 mm | - | 849 W/m² | - |
| 1777407604 | 28.89° C | 73% | 1008.9 hPa | 0 mm | - | 643 W/m² | - |
* Rain latest hour (hover to see other rain measurements)
** Current wind speed in m/s (hover to see current wind gust speed)